createdAt,value
2022-09-07T00:00:13.251Z,9.30
2022-09-07T00:03:03.483Z,6.20
2022-09-07T00:05:32.905Z,11.50
2022-09-07T00:08:03.542Z,7.90
2022-09-07T00:10:32.915Z,6.40
2022-09-07T00:13:02.614Z,8.20
2022-09-07T00:15:32.435Z,8.40
2022-09-07T00:18:01.884Z,8.30
2022-09-07T00:20:31.838Z,8.20
2022-09-07T00:23:00.475Z,6.70
2022-09-07T00:25:31.872Z,7.80
2022-09-07T00:28:02.196Z,5.90
2022-09-07T00:30:32.516Z,6.90
2022-09-07T00:33:02.377Z,6.30
2022-09-07T00:35:32.821Z,9.40
2022-09-07T00:38:02.193Z,7.70
2022-09-07T00:40:31.846Z,9.70
2022-09-07T00:43:02.211Z,8.50
2022-09-07T00:45:32.354Z,8.40
2022-09-07T00:48:04.732Z,8.00
2022-09-07T00:50:44.076Z,7.90
2022-09-07T00:53:29.293Z,8.20
2022-09-07T00:55:59.974Z,7.70
2022-09-07T00:58:31.680Z,6.30
2022-09-07T01:01:01.953Z,5.40
2022-09-07T01:03:40.520Z,5.60
2022-09-07T01:06:42.913Z,5.70
2022-09-07T01:09:19.046Z,6.60
2022-09-07T01:11:53.810Z,6.90
2022-09-07T01:14:31.575Z,6.60
2022-09-07T01:17:08.440Z,6.10
2022-09-07T01:20:18.945Z,7.10
2022-09-07T01:23:13.791Z,7.50
2022-09-07T01:26:29.954Z,5.90
2022-09-07T01:29:17.537Z,5.60
2022-09-07T01:31:53.452Z,7.00
2022-09-07T01:34:26.080Z,7.80
2022-09-07T01:37:07.623Z,8.90
2022-09-07T01:40:22.135Z,7.70
2022-09-07T01:43:06.932Z,7.90
2022-09-07T01:45:43.784Z,10.40
2022-09-07T01:48:19.561Z,7.40
2022-09-07T01:51:01.745Z,14.50
2022-09-07T01:53:40.695Z,10.80
2022-09-07T01:56:39.383Z,7.30
2022-09-07T01:59:34.996Z,8.30
2022-09-07T02:02:20.424Z,9.00
2022-09-07T02:05:01.474Z,9.40
2022-09-07T02:07:43.851Z,7.00
2022-09-07T02:10:38.354Z,7.20
2022-09-07T02:13:23.356Z,8.10
2022-09-07T02:16:01.770Z,8.30
2022-09-07T02:18:42.527Z,9.00
2022-09-07T02:21:16.148Z,9.60
2022-09-07T02:23:51.275Z,10.30
2022-09-07T02:26:24.231Z,7.00
2022-09-07T02:28:57.946Z,7.80
2022-09-07T02:31:27.503Z,9.50
2022-09-07T02:33:57.911Z,10.00
2022-09-07T02:36:31.320Z,9.30
2022-09-07T02:39:01.621Z,6.70
2022-09-07T02:41:39.664Z,9.50
2022-09-07T02:47:00.130Z,9.50
2022-09-07T02:50:16.050Z,8.20
2022-09-07T02:53:11.105Z,11.20
2022-09-07T02:55:54.384Z,7.40
2022-09-07T02:58:43.064Z,8.80
2022-09-07T03:01:31.014Z,9.10
2022-09-07T03:04:20.057Z,9.90
2022-09-07T03:07:15.809Z,8.10
2022-09-07T03:09:52.010Z,7.80
2022-09-07T03:12:21.429Z,6.80
2022-09-07T03:14:50.760Z,8.00
2022-09-07T03:17:21.882Z,6.70
2022-09-07T03:19:51.364Z,8.60
2022-09-07T03:22:20.698Z,7.50
2022-09-07T03:24:50.187Z,8.10
2022-09-07T03:27:19.737Z,8.90
2022-09-07T03:29:49.091Z,6.50
2022-09-07T03:32:18.538Z,7.40
2022-09-07T03:34:49.042Z,9.20
2022-09-07T03:37:18.191Z,9.70
2022-09-07T03:39:47.765Z,9.30
2022-09-07T03:42:17.294Z,8.80
2022-09-07T03:44:46.922Z,5.90
2022-09-07T03:47:17.707Z,7.10
2022-09-07T03:49:47.121Z,7.50
2022-09-07T03:52:16.523Z,7.80
2022-09-07T03:54:46.889Z,8.20
2022-09-07T03:57:20.563Z,10.80
2022-09-07T03:59:51.039Z,11.80
2022-09-07T04:02:20.341Z,8.10
2022-09-07T04:04:49.733Z,7.70
2022-09-07T04:07:19.111Z,10.70
2022-09-07T04:09:49.543Z,8.60
2022-09-07T04:12:22.474Z,8.90
2022-09-07T04:14:52.371Z,9.10
2022-09-07T04:17:22.094Z,9.00
2022-09-07T04:19:51.346Z,8.50
2022-09-07T04:22:23.117Z,8.20
2022-09-07T04:24:52.226Z,7.10
2022-09-07T04:27:21.490Z,6.80
2022-09-07T04:29:50.783Z,8.00
2022-09-07T04:32:20.450Z,8.20
2022-09-07T04:34:52.413Z,9.10
2022-09-07T04:37:22.319Z,15.50
2022-09-07T04:39:52.339Z,8.90
2022-09-07T04:42:23.513Z,8.10
2022-09-07T04:44:52.989Z,10.80
2022-09-07T04:47:22.875Z,10.30
2022-09-07T04:49:54.297Z,7.90
2022-09-07T04:52:26.124Z,6.80
2022-09-07T04:54:56.386Z,8.30
2022-09-07T04:57:26.924Z,8.80
2022-09-07T04:59:56.314Z,8.40
2022-09-07T05:02:26.516Z,7.00
2022-09-07T05:04:59.463Z,8.90
2022-09-07T05:07:33.383Z,11.00
2022-09-07T05:10:02.988Z,9.30
2022-09-07T05:12:32.697Z,7.60
2022-09-07T05:15:02.724Z,6.20
2022-09-07T05:17:32.648Z,11.30
2022-09-07T05:20:02.759Z,9.90
2022-09-07T05:22:33.558Z,8.30
2022-09-07T05:25:03.341Z,8.90
2022-09-07T05:27:33.641Z,7.50
2022-09-07T05:30:05.243Z,6.30
2022-09-07T05:32:35.801Z,14.30
2022-09-07T05:35:05.949Z,8.10
2022-09-07T05:37:35.588Z,6.40
2022-09-07T05:40:06.708Z,7.20
2022-09-07T05:42:37.112Z,6.30
2022-09-07T05:45:07.869Z,8.10
2022-09-07T05:47:38.518Z,6.10
2022-09-07T05:50:09.566Z,6.90
2022-09-07T05:52:39.012Z,8.70
2022-09-07T05:55:28.717Z,6.60
2022-09-07T05:58:00.897Z,7.20
2022-09-07T06:00:29.521Z,10.80
2022-09-07T06:02:59.527Z,8.70
2022-09-07T06:05:30.581Z,9.90
2022-09-07T06:08:01.139Z,7.40
2022-09-07T06:13:14.743Z,7.80
2022-09-07T06:15:44.147Z,7.30
2022-09-07T06:18:13.399Z,8.00
2022-09-07T06:20:43.022Z,8.20
2022-09-07T06:23:13.092Z,7.30
2022-09-07T06:25:50.061Z,8.10
2022-09-07T06:28:20.904Z,8.00
2022-09-07T06:30:50.129Z,7.20
2022-09-07T06:33:21.983Z,8.00
2022-09-07T06:36:02.606Z,7.90
2022-09-07T06:38:37.801Z,8.20
2022-09-07T06:44:01.829Z,8.00
2022-09-07T06:49:23.855Z,6.40
2022-09-07T06:51:54.053Z,5.70
2022-09-07T06:57:14.926Z,6.50
2022-09-07T06:59:44.820Z,5.50
2022-09-07T07:02:15.384Z,6.60
2022-09-07T07:04:46.927Z,8.60
2022-09-07T07:07:17.377Z,5.70
2022-09-07T07:09:50.207Z,6.70
2022-09-07T07:14:48.976Z,6.80
2022-09-07T07:17:20.520Z,5.80
2022-09-07T07:19:50.736Z,6.20
2022-09-07T07:25:10.644Z,6.70
2022-09-07T07:27:40.058Z,7.40
2022-09-07T07:30:10.505Z,8.10
2022-09-07T07:32:40.727Z,7.00
2022-09-07T07:35:12.047Z,6.80
2022-09-07T07:37:41.858Z,6.50
2022-09-07T07:42:49.326Z,5.20
2022-09-07T07:48:08.403Z,6.60
2022-09-07T07:50:38.106Z,5.10
2022-09-07T07:56:00.812Z,6.90
2022-09-07T07:58:32.059Z,8.20
2022-09-07T08:01:08.592Z,5.70
2022-09-07T08:03:40.388Z,6.40
2022-09-07T08:06:13.577Z,6.50
2022-09-07T08:08:46.679Z,7.70
2022-09-07T08:11:18.869Z,8.00
2022-09-07T08:13:50.866Z,8.10
2022-09-07T08:16:19.668Z,7.60
2022-09-07T08:18:49.544Z,5.90
2022-09-07T08:21:19.510Z,7.20
2022-09-07T08:24:07.414Z,6.20
2022-09-07T08:26:36.853Z,6.70
2022-09-07T08:29:06.463Z,5.00
2022-09-07T08:31:36.618Z,6.00
2022-09-07T08:34:08.051Z,5.30
2022-09-07T08:36:37.560Z,5.60
2022-09-07T08:39:07.612Z,5.10
2022-09-07T08:41:41.057Z,5.90
2022-09-07T08:44:34.166Z,7.40
2022-09-07T08:47:25.943Z,8.40
2022-09-07T08:50:07.766Z,7.70
2022-09-07T08:52:59.000Z,10.00
2022-09-07T08:55:37.329Z,6.70
2022-09-07T08:58:50.278Z,9.30
2022-09-07T09:01:41.172Z,5.90
2022-09-07T09:04:19.424Z,8.40
2022-09-07T09:07:17.571Z,6.10
2022-09-07T09:10:13.374Z,7.50
2022-09-07T09:13:05.279Z,5.10
2022-09-07T09:16:02.547Z,7.70
2022-09-07T09:19:06.515Z,7.30
2022-09-07T09:21:36.858Z,6.40
2022-09-07T09:24:19.434Z,7.10
2022-09-07T09:26:57.624Z,8.60
2022-09-07T09:29:28.015Z,7.20
2022-09-07T09:31:58.333Z,11.50
2022-09-07T09:34:31.254Z,7.50
2022-09-07T09:37:03.926Z,7.20
2022-09-07T09:39:33.623Z,9.10
2022-09-07T09:42:12.005Z,6.90
2022-09-07T09:44:43.588Z,9.30
2022-09-07T09:47:30.204Z,6.30
2022-09-07T09:50:09.435Z,5.70
2022-09-07T09:52:47.923Z,5.20
2022-09-07T09:55:35.929Z,7.90
2022-09-07T10:04:40.306Z,6.80
2022-09-07T10:07:25.479Z,6.30
2022-09-07T10:09:55.899Z,6.80
2022-09-07T10:12:32.439Z,8.70
2022-09-07T10:15:08.121Z,5.20
2022-09-07T10:17:48.686Z,7.60
2022-09-07T10:20:21.736Z,4.80
2022-09-07T10:23:00.024Z,6.00
2022-09-07T10:25:41.352Z,4.90
2022-09-07T10:28:14.527Z,5.10
2022-09-07T10:31:03.431Z,5.80
2022-09-07T10:37:07.085Z,6.10
2022-09-07T10:39:51.028Z,7.40
2022-09-07T10:42:36.146Z,7.70
2022-09-07T10:45:29.215Z,7.30
2022-09-07T10:48:12.110Z,8.60
2022-09-07T10:50:48.493Z,7.80
2022-09-07T10:54:29.446Z,7.70
2022-09-07T10:56:42.158Z,5.70
2022-09-07T11:03:26.446Z,6.30
2022-09-07T11:06:12.586Z,8.20
2022-09-07T11:09:18.041Z,7.80
2022-09-07T11:12:04.787Z,7.20
2022-09-07T11:15:01.499Z,6.30
2022-09-07T11:17:43.116Z,7.70
2022-09-07T11:20:22.582Z,6.40
2022-09-07T11:23:15.639Z,7.30
2022-09-07T11:26:16.249Z,4.50
2022-09-07T11:32:02.818Z,7.30
2022-09-07T11:34:58.583Z,6.60
2022-09-07T11:37:56.365Z,6.50
2022-09-07T11:40:42.504Z,6.50
2022-09-07T11:43:54.551Z,6.80
2022-09-07T11:46:53.454Z,5.60
2022-09-07T11:49:26.179Z,5.80
2022-09-07T11:52:25.123Z,7.10
2022-09-07T11:55:01.238Z,6.90
2022-09-07T11:57:40.495Z,6.90
2022-09-07T12:00:28.742Z,6.80
2022-09-07T12:03:23.579Z,5.50
2022-09-07T12:06:25.876Z,8.10
2022-09-07T12:09:12.891Z,5.40
2022-09-07T12:12:18.003Z,5.90
2022-09-07T12:15:29.482Z,4.70
2022-09-07T12:18:33.910Z,4.90
2022-09-07T12:21:25.994Z,5.30
2022-09-07T12:23:55.690Z,4.90
2022-09-07T12:26:37.755Z,5.30
2022-09-07T12:29:25.050Z,5.20
2022-09-07T12:31:58.735Z,5.50
2022-09-07T12:34:33.855Z,4.60
2022-09-07T12:37:13.032Z,4.30
2022-09-07T12:39:44.539Z,3.70
2022-09-07T12:42:32.252Z,4.90
2022-09-07T12:45:31.849Z,3.70
2022-09-07T12:48:21.753Z,4.80
2022-09-07T12:54:32.151Z,4.00
2022-09-07T12:57:29.566Z,5.60
2022-09-07T13:00:52.769Z,4.30
2022-09-07T13:07:05.317Z,4.40
2022-09-07T13:09:37.697Z,6.30
2022-09-07T13:15:41.920Z,5.80
2022-09-07T13:18:32.806Z,5.80
2022-09-07T13:21:08.312Z,5.00
2022-09-07T13:23:43.504Z,4.30
2022-09-07T13:26:52.482Z,5.60
2022-09-07T13:29:32.165Z,9.90
2022-09-07T13:35:25.881Z,7.20
2022-09-07T13:38:05.097Z,5.20
2022-09-07T13:40:46.164Z,7.70
2022-09-07T13:43:22.494Z,4.70
2022-09-07T13:45:54.768Z,4.80
2022-09-07T13:48:26.730Z,5.50
2022-09-07T13:51:20.907Z,7.80
2022-09-07T13:53:57.066Z,7.10
2022-09-07T13:57:00.416Z,9.10
2022-09-07T13:59:34.307Z,7.70
2022-09-07T14:02:20.489Z,5.20
2022-09-07T14:04:56.972Z,6.00
2022-09-07T14:07:29.111Z,5.20
2022-09-07T14:10:23.342Z,5.20
2022-09-07T14:12:55.575Z,6.60
2022-09-07T14:15:43.332Z,7.00
2022-09-07T14:18:13.576Z,5.80
2022-09-07T14:20:53.998Z,6.30
2022-09-07T14:23:31.356Z,6.10
2022-09-07T14:26:22.322Z,7.20
2022-09-07T14:28:53.998Z,7.50
2022-09-07T14:31:25.451Z,7.00
2022-09-07T14:33:58.333Z,6.10
2022-09-07T14:36:45.400Z,6.60
2022-09-07T14:39:19.905Z,8.20
2022-09-07T14:41:50.314Z,7.00
2022-09-07T14:44:43.405Z,6.50
2022-09-07T14:47:34.080Z,9.10
2022-09-07T14:50:06.312Z,6.70
2022-09-07T14:53:33.394Z,7.50
2022-09-07T14:55:40.885Z,5.90
2022-09-07T14:58:16.709Z,5.90
2022-09-07T15:01:37.244Z,6.20
2022-09-07T15:03:41.218Z,7.00
2022-09-07T15:07:00.930Z,7.90
2022-09-07T15:09:04.080Z,7.90
2022-09-07T15:11:36.765Z,7.40
2022-09-07T15:14:08.219Z,9.90
2022-09-07T15:16:41.761Z,6.50
2022-09-07T15:19:22.014Z,7.70
2022-09-07T15:21:51.274Z,6.90
2022-09-07T15:24:20.578Z,7.90
2022-09-07T15:27:06.221Z,7.00
2022-09-07T15:29:37.136Z,7.50
2022-09-07T15:32:09.715Z,7.40
2022-09-07T15:34:39.094Z,7.00
2022-09-07T15:40:01.868Z,6.80
2022-09-07T15:45:20.167Z,22.00
2022-09-07T15:47:52.303Z,7.70
2022-09-07T15:50:23.571Z,6.00
2022-09-07T15:52:53.151Z,6.30
2022-09-07T15:55:22.435Z,7.40
2022-09-07T15:58:05.230Z,7.70
2022-09-07T16:00:41.669Z,7.00
2022-09-07T16:03:11.239Z,9.40
2022-09-07T16:05:44.575Z,7.20
2022-09-07T16:11:27.610Z,9.50
2022-09-07T16:14:01.686Z,5.70
2022-09-07T16:19:24.259Z,9.70
2022-09-07T16:21:57.432Z,11.20
2022-09-07T16:24:28.703Z,7.20
2022-09-07T16:26:57.396Z,13.50
2022-09-07T16:29:26.914Z,7.20
2022-09-07T16:34:45.559Z,6.90
2022-09-07T16:37:19.337Z,9.50
2022-09-07T16:39:49.160Z,9.70
2022-09-07T16:42:19.366Z,7.20
2022-09-07T16:44:48.994Z,8.40
2022-09-07T16:47:18.802Z,9.10
2022-09-07T16:49:48.869Z,15.00
2022-09-07T16:52:19.490Z,9.00
2022-09-07T16:54:51.224Z,8.40
2022-09-07T16:57:22.763Z,10.90
2022-09-07T16:59:52.114Z,7.90
2022-09-07T17:02:22.150Z,9.40
2022-09-07T17:04:52.283Z,7.90
2022-09-07T17:07:22.364Z,7.50
2022-09-07T17:09:50.960Z,10.30
2022-09-07T17:12:20.315Z,13.50
2022-09-07T17:14:49.774Z,7.60
2022-09-07T17:17:20.500Z,9.60
2022-09-07T17:19:53.111Z,11.80
2022-09-07T17:22:22.562Z,9.20
2022-09-07T17:24:51.861Z,9.20
2022-09-07T17:27:21.356Z,12.20
2022-09-07T17:29:53.727Z,9.70
2022-09-07T17:32:25.495Z,9.40
2022-09-07T17:34:56.137Z,11.00
2022-09-07T17:37:26.170Z,8.80
2022-09-07T17:39:56.660Z,12.70
2022-09-07T17:43:38.673Z,11.00
2022-09-07T17:45:18.553Z,13.20
2022-09-07T17:47:49.985Z,10.00
2022-09-07T17:50:19.282Z,11.30
2022-09-07T17:52:52.678Z,11.90
2022-09-07T17:55:23.029Z,15.30
2022-09-07T17:57:53.142Z,12.30
2022-09-07T18:00:22.827Z,15.20
2022-09-07T18:02:53.465Z,17.30
2022-09-07T18:05:23.150Z,18.80
2022-09-07T18:07:53.198Z,18.20
2022-09-07T18:10:22.898Z,21.00
2022-09-07T18:12:54.799Z,18.30
2022-09-07T18:15:25.086Z,17.60
2022-09-07T18:17:55.259Z,16.60
2022-09-07T18:20:25.869Z,16.40
2022-09-07T18:22:57.751Z,12.90
2022-09-07T18:25:29.267Z,18.00
2022-09-07T18:30:49.953Z,18.50
2022-09-07T18:33:20.262Z,16.50
2022-09-07T18:35:49.580Z,19.90
2022-09-07T18:38:18.799Z,18.90
2022-09-07T18:40:47.359Z,15.70
2022-09-07T18:43:16.758Z,12.00
2022-09-07T18:45:46.124Z,15.50
2022-09-07T18:48:16.017Z,26.10
2022-09-07T18:50:45.069Z,18.60
2022-09-07T18:53:16.474Z,16.70
2022-09-07T18:55:46.311Z,18.00
2022-09-07T18:58:16.730Z,19.50
2022-09-07T19:00:50.621Z,15.20
2022-09-07T19:03:20.475Z,17.20
2022-09-07T19:05:50.316Z,14.70
2022-09-07T19:08:20.129Z,16.30
2022-09-07T19:10:49.790Z,18.00
2022-09-07T19:13:21.079Z,21.60
2022-09-07T19:15:50.837Z,16.60
2022-09-07T19:18:20.678Z,13.70
2022-09-07T19:20:49.879Z,14.70
2022-09-07T19:23:19.217Z,15.80
2022-09-07T19:25:49.334Z,15.30
2022-09-07T19:28:19.470Z,19.60
2022-09-07T19:30:48.829Z,16.30
2022-09-07T19:33:18.116Z,12.90
2022-09-07T19:35:47.190Z,16.50
2022-09-07T19:38:16.373Z,19.30
2022-09-07T19:40:46.344Z,16.80
2022-09-07T19:43:15.098Z,13.10
2022-09-07T19:45:44.497Z,13.60
2022-09-07T19:48:14.199Z,14.20
2022-09-07T19:50:48.065Z,14.60
2022-09-07T19:53:18.286Z,15.10
2022-09-07T19:55:47.830Z,22.00
2022-09-07T19:58:17.138Z,19.50
2022-09-07T20:00:46.729Z,17.20
2022-09-07T20:03:16.683Z,27.00
2022-09-07T20:05:46.704Z,27.40
2022-09-07T20:08:16.676Z,26.50
2022-09-07T20:10:46.312Z,32.80
2022-09-07T20:13:16.362Z,32.10
2022-09-07T20:15:45.608Z,30.70
2022-09-07T20:18:15.569Z,28.90
2022-09-07T20:20:45.512Z,23.30
2022-09-07T20:23:14.788Z,20.60
2022-09-07T20:25:43.908Z,18.20
2022-09-07T20:28:14.787Z,15.80
2022-09-07T20:30:45.024Z,16.40
2022-09-07T20:33:14.980Z,18.40
2022-09-07T20:35:44.088Z,17.40
2022-09-07T20:38:13.085Z,22.00
2022-09-07T20:40:58.895Z,14.70
2022-09-07T20:43:30.562Z,15.50
2022-09-07T20:46:00.581Z,18.00
2022-09-07T20:48:31.311Z,15.50
2022-09-07T20:51:04.013Z,16.20
2022-09-07T20:53:33.333Z,17.50
2022-09-07T20:56:06.021Z,15.20
2022-09-07T20:58:36.137Z,14.80
2022-09-07T21:01:05.585Z,15.90
2022-09-07T21:03:35.626Z,17.20
2022-09-07T21:06:07.239Z,15.50
2022-09-07T21:08:38.761Z,32.00
2022-09-07T21:11:13.856Z,24.20
2022-09-07T21:13:45.293Z,22.00
2022-09-07T21:16:16.798Z,23.80
2022-09-07T21:18:46.133Z,21.50
2022-09-07T21:21:20.369Z,19.90
2022-09-07T21:23:59.803Z,24.70
2022-09-07T21:26:31.455Z,27.50
2022-09-07T21:29:02.791Z,23.60
2022-09-07T21:31:34.043Z,29.70
2022-09-07T21:34:03.356Z,29.30
2022-09-07T21:36:34.462Z,21.30
2022-09-07T21:39:04.797Z,23.60
2022-09-07T21:41:35.724Z,22.30
2022-09-07T21:44:05.798Z,44.20
2022-09-07T21:46:36.693Z,42.50
2022-09-07T21:49:08.505Z,18.70
2022-09-07T21:51:38.423Z,17.00
2022-09-07T21:54:07.737Z,21.20
2022-09-07T21:56:37.446Z,29.40
2022-09-07T21:59:06.880Z,16.70
2022-09-07T22:01:37.017Z,24.20
2022-09-07T22:04:09.469Z,23.70
2022-09-07T22:06:40.183Z,27.60
2022-09-07T22:09:09.611Z,21.50
2022-09-07T22:11:42.033Z,28.40
2022-09-07T22:14:16.478Z,21.80
2022-09-07T22:16:45.708Z,25.80
2022-09-07T22:19:15.481Z,29.10
2022-09-07T22:21:45.131Z,14.60
2022-09-07T22:24:15.611Z,21.00
2022-09-07T22:26:46.632Z,26.90
2022-09-07T22:29:16.135Z,18.30
2022-09-07T22:31:45.346Z,21.10
2022-09-07T22:34:15.251Z,21.90
2022-09-07T22:36:45.465Z,27.40
2022-09-07T22:39:17.438Z,18.30
2022-09-07T22:41:48.057Z,28.30
2022-09-07T22:44:18.959Z,41.10
2022-09-07T22:46:48.634Z,21.20
2022-09-07T22:49:19.120Z,29.60
2022-09-07T22:51:48.334Z,41.90
2022-09-07T22:54:17.680Z,40.10
2022-09-07T22:56:48.997Z,19.60
2022-09-07T22:59:18.745Z,13.70
2022-09-07T23:01:47.941Z,18.10
2022-09-07T23:04:17.484Z,15.20
2022-09-07T23:06:46.963Z,25.60
2022-09-07T23:09:18.765Z,19.90
2022-09-07T23:11:48.896Z,32.40
2022-09-07T23:14:24.775Z,38.30
2022-09-07T23:16:55.049Z,35.50
2022-09-07T23:19:24.295Z,20.80
2022-09-07T23:21:53.594Z,29.50
2022-09-07T23:24:24.732Z,24.90
2022-09-07T23:26:54.032Z,26.60
2022-09-07T23:29:23.449Z,30.10
2022-09-07T23:31:52.681Z,32.00
2022-09-07T23:34:22.641Z,27.60
2022-09-07T23:36:52.105Z,30.00
2022-09-07T23:39:22.011Z,28.90
2022-09-07T23:41:51.672Z,45.90
2022-09-07T23:44:21.606Z,33.40
2022-09-07T23:46:51.343Z,21.00
2022-09-07T23:49:22.139Z,17.50
2022-09-07T23:51:50.614Z,12.60
2022-09-07T23:54:19.895Z,14.00
2022-09-07T23:56:49.352Z,19.90
2022-09-07T23:59:19.039Z,24.60
